Delta Virtual Airport Information Service

Marrakesh Menara Airport

ICAO: GMMX Country: Morocco
Latitude: 31.6069 Longitude: -8.0363
Latest Arrival : EZY1689 (1) (LFMN-GMMX) Latest Departure : RYR1076 (1) (GMMX-EDDH)


WX CaptureLIVE
Data provided by noaa.gov | Fetched at 18:07:23

METAR : GMMX 172130Z 04012KT 8000 NSC 25/14 Q1013 NOSIG

TAF : GMMX 172130Z 04012KT 8000 NSC 25/14 Q1013 NOSIG


Runway Data for GMMX
Data provided by openaviationdata.com

Runway ID Mag Var Hdg Length Elevation Surface ILS Freq ILS Id ILS Slope
10 -6 101° 10040 ft 1535 ft Bituminous 109.7 MAR 3
28 -6 281° 10040 ft 1535 ft Bituminous -- -- --

Marrakesh Menara Airport, Morocco
Use only for reference purposes



Not for navigational purposes.